createdAt,value
2022-12-31T00:01:07.319Z,9.36
2022-12-31T00:03:40.198Z,9.14
2022-12-31T00:06:33.475Z,9.38
2022-12-31T00:09:03.515Z,9.97
2022-12-31T00:11:30.375Z,9.90
2022-12-31T00:13:57.574Z,10.12
2022-12-31T00:16:30.295Z,9.71
2022-12-31T00:18:58.487Z,10.26
2022-12-31T00:21:30.581Z,9.78
2022-12-31T00:23:57.302Z,10.07
2022-12-31T00:26:28.810Z,9.75
2022-12-31T00:29:01.376Z,9.94
2022-12-31T00:31:37.405Z,9.50
2022-12-31T00:34:05.650Z,9.68
2022-12-31T00:36:37.102Z,9.36
2022-12-31T00:39:10.154Z,8.77
2022-12-31T00:41:37.660Z,9.47
2022-12-31T00:44:05.762Z,8.73
2022-12-31T00:46:32.707Z,8.63
2022-12-31T00:48:59.809Z,8.35
2022-12-31T00:51:27.053Z,8.82
2022-12-31T00:53:59.078Z,8.74
2022-12-31T00:56:28.643Z,8.91
2022-12-31T00:59:01.355Z,9.15
2022-12-31T01:01:30.129Z,8.80
2022-12-31T01:04:05.463Z,8.88
2022-12-31T01:06:32.617Z,8.89
2022-12-31T01:09:05.260Z,9.70
2022-12-31T01:11:32.012Z,9.31
2022-12-31T01:14:04.679Z,9.57
2022-12-31T01:16:40.269Z,9.63
2022-12-31T01:19:09.221Z,9.52
2022-12-31T01:21:39.564Z,9.02
2022-12-31T01:24:07.884Z,8.90
2022-12-31T01:26:35.652Z,8.71
2022-12-31T01:29:02.979Z,8.93
2022-12-31T01:31:30.107Z,8.81
2022-12-31T01:34:03.482Z,8.54
2022-12-31T01:36:55.919Z,8.97
2022-12-31T01:39:22.955Z,9.43
2022-12-31T01:41:56.293Z,9.65
2022-12-31T01:44:33.061Z,9.71
2022-12-31T01:47:02.171Z,9.00
2022-12-31T01:49:57.928Z,9.26
2022-12-31T01:52:30.262Z,8.94
2022-12-31T01:55:12.579Z,8.97
2022-12-31T01:57:40.728Z,9.28
2022-12-31T02:00:09.055Z,8.63
2022-12-31T02:02:41.391Z,9.10
2022-12-31T02:05:38.653Z,9.09
2022-12-31T02:08:05.638Z,8.81
2022-12-31T02:10:32.658Z,8.87
2022-12-31T02:13:01.649Z,8.95
2022-12-31T02:15:43.456Z,9.15
2022-12-31T02:18:47.379Z,9.60
2022-12-31T02:21:29.660Z,9.62
2022-12-31T02:24:03.593Z,9.78
2022-12-31T02:26:54.636Z,9.59
2022-12-31T02:29:34.078Z,9.74
2022-12-31T02:32:08.809Z,9.00
2022-12-31T02:35:09.339Z,8.95
2022-12-31T02:37:36.138Z,8.76
2022-12-31T02:40:04.593Z,8.83
2022-12-31T02:42:31.602Z,8.90
2022-12-31T02:44:58.684Z,8.88
2022-12-31T02:47:53.656Z,8.59
2022-12-31T02:50:36.711Z,8.37
2022-12-31T02:54:04.869Z,8.53
2022-12-31T02:56:51.384Z,8.45
2022-12-31T02:59:49.933Z,8.78
2022-12-31T03:02:23.024Z,8.88
2022-12-31T03:04:56.064Z,9.11
2022-12-31T03:07:25.340Z,9.17
2022-12-31T03:09:54.261Z,9.63
2022-12-31T03:12:22.585Z,9.11
2022-12-31T03:14:49.657Z,9.16
2022-12-31T03:17:17.393Z,9.59
2022-12-31T03:19:44.442Z,9.52
2022-12-31T03:22:15.567Z,9.20
2022-12-31T03:24:48.476Z,8.83
2022-12-31T03:27:16.555Z,8.81
2022-12-31T03:29:43.503Z,8.56
2022-12-31T03:32:12.980Z,8.52
2022-12-31T03:34:42.684Z,8.34
2022-12-31T03:37:15.637Z,8.46
2022-12-31T03:39:42.782Z,8.21
2022-12-31T03:42:15.680Z,8.32
2022-12-31T03:44:45.294Z,8.34
2022-12-31T03:47:15.033Z,8.53
2022-12-31T03:49:47.053Z,8.24
2022-12-31T03:52:14.059Z,8.47
2022-12-31T03:54:41.113Z,8.31
2022-12-31T03:57:08.174Z,8.59
2022-12-31T03:59:35.461Z,8.71
2022-12-31T04:02:02.807Z,9.11
2022-12-31T04:04:29.955Z,8.94
2022-12-31T04:06:57.092Z,9.34
2022-12-31T04:09:24.196Z,8.68
2022-12-31T04:11:53.781Z,9.01
2022-12-31T04:14:26.497Z,8.85
2022-12-31T04:16:53.522Z,8.65
2022-12-31T04:19:20.563Z,8.36
2022-12-31T04:21:47.474Z,8.52
2022-12-31T04:24:14.436Z,8.30
2022-12-31T04:26:41.546Z,8.57
2022-12-31T04:29:14.263Z,8.60
2022-12-31T04:31:45.993Z,8.66
2022-12-31T04:34:13.210Z,8.79
2022-12-31T04:37:04.520Z,9.03
2022-12-31T04:39:36.323Z,8.93
2022-12-31T04:42:03.490Z,8.77
2022-12-31T04:44:30.510Z,8.77
2022-12-31T04:46:58.049Z,8.88
2022-12-31T04:49:25.073Z,8.96
2022-12-31T04:51:52.270Z,9.02
2022-12-31T04:54:20.753Z,9.02
2022-12-31T04:56:47.741Z,8.92
2022-12-31T04:59:15.152Z,8.90
2022-12-31T05:01:42.226Z,9.29
2022-12-31T05:04:09.316Z,8.91
2022-12-31T05:06:41.137Z,8.66
2022-12-31T05:09:08.162Z,9.17
2022-12-31T05:11:35.321Z,8.59
2022-12-31T05:14:04.864Z,8.80
2022-12-31T05:16:32.273Z,8.83
2022-12-31T05:19:03.164Z,8.76
2022-12-31T05:21:30.754Z,8.48
2022-12-31T05:23:57.780Z,8.90
2022-12-31T05:26:24.787Z,8.35
2022-12-31T05:28:51.789Z,8.17
2022-12-31T05:31:24.600Z,8.28
2022-12-31T05:33:51.494Z,9.12
2022-12-31T05:36:24.177Z,9.22
2022-12-31T05:38:53.703Z,8.78
2022-12-31T05:41:23.501Z,8.46
2022-12-31T05:43:50.725Z,8.16
2022-12-31T05:46:23.476Z,8.10
2022-12-31T05:48:52.061Z,8.28
2022-12-31T05:51:19.110Z,8.75
2022-12-31T05:53:51.402Z,8.55
2022-12-31T05:56:23.398Z,8.75
2022-12-31T05:58:50.410Z,8.28
2022-12-31T06:01:23.093Z,8.14
2022-12-31T06:03:52.730Z,7.92
2022-12-31T06:06:19.750Z,8.13
2022-12-31T06:08:54.748Z,8.15
2022-12-31T06:11:21.847Z,8.03
2022-12-31T06:13:48.878Z,8.04
2022-12-31T06:16:15.819Z,7.81
2022-12-31T06:18:42.842Z,8.15
2022-12-31T06:21:09.888Z,8.06
2022-12-31T06:23:36.931Z,7.95
2022-12-31T06:26:07.056Z,7.98
2022-12-31T06:28:34.083Z,8.09
2022-12-31T06:31:01.574Z,8.18
2022-12-31T06:33:29.022Z,8.15
2022-12-31T06:36:03.072Z,8.46
2022-12-31T06:38:30.743Z,8.26
2022-12-31T06:40:57.776Z,8.24
2022-12-31T06:43:27.443Z,7.98
2022-12-31T06:45:55.165Z,8.05
2022-12-31T06:48:25.034Z,7.95
2022-12-31T06:50:51.754Z,8.51
2022-12-31T06:53:18.753Z,8.00
2022-12-31T06:55:51.740Z,7.95
2022-12-31T06:58:19.710Z,8.28
2022-12-31T07:01:29.503Z,7.70
2022-12-31T07:04:52.973Z,7.69
2022-12-31T07:07:57.613Z,7.77
2022-12-31T07:10:29.999Z,8.35
2022-12-31T07:13:24.739Z,8.25
2022-12-31T07:16:25.813Z,8.57
2022-12-31T07:19:33.839Z,8.52
2022-12-31T07:22:01.227Z,8.48
2022-12-31T07:24:29.446Z,8.27
2022-12-31T07:27:16.464Z,8.27
2022-12-31T07:30:04.991Z,8.44
2022-12-31T07:33:19.839Z,8.12
2022-12-31T07:36:25.601Z,8.49
2022-12-31T07:39:39.105Z,8.54
2022-12-31T07:42:27.557Z,8.11
2022-12-31T07:45:31.878Z,8.48
2022-12-31T07:48:06.866Z,8.22
2022-12-31T07:50:36.555Z,8.48
2022-12-31T07:53:09.135Z,9.11
2022-12-31T07:55:36.970Z,8.59
2022-12-31T07:58:10.865Z,8.97
2022-12-31T08:00:40.429Z,9.21
2022-12-31T08:03:28.783Z,9.45
2022-12-31T08:06:24.038Z,9.20
2022-12-31T08:09:03.612Z,9.06
2022-12-31T08:12:01.765Z,9.02
2022-12-31T08:14:37.453Z,9.03
2022-12-31T08:17:04.809Z,8.97
2022-12-31T08:19:35.094Z,9.13
2022-12-31T08:25:43.290Z,9.32
2022-12-31T08:28:59.409Z,9.01
2022-12-31T08:31:48.298Z,9.30
2022-12-31T08:34:40.842Z,9.10
2022-12-31T08:37:18.214Z,9.56
2022-12-31T08:40:23.611Z,9.36
2022-12-31T08:42:53.612Z,9.04
2022-12-31T08:45:50.884Z,9.28
2022-12-31T08:48:25.625Z,9.43
2022-12-31T08:50:53.747Z,9.31
2022-12-31T08:53:25.728Z,9.43
2022-12-31T08:56:04.991Z,9.70
2022-12-31T08:59:20.442Z,9.92
2022-12-31T09:02:18.118Z,9.88
2022-12-31T09:05:26.513Z,9.93
2022-12-31T09:08:17.773Z,10.12
2022-12-31T09:11:24.684Z,10.29
2022-12-31T09:17:28.993Z,10.50
2022-12-31T09:19:57.250Z,10.67
2022-12-31T09:22:27.278Z,10.64
2022-12-31T09:24:54.213Z,10.82
2022-12-31T09:27:58.712Z,11.08
2022-12-31T09:30:37.926Z,11.44
2022-12-31T09:33:31.424Z,11.11
2022-12-31T09:35:58.779Z,11.09
2022-12-31T09:39:07.986Z,11.39
2022-12-31T09:41:52.732Z,11.53
2022-12-31T09:44:48.531Z,11.94
2022-12-31T09:47:33.850Z,11.96
2022-12-31T09:50:21.303Z,12.22
2022-12-31T09:53:14.922Z,12.50
2022-12-31T09:56:03.462Z,12.48
2022-12-31T09:59:08.033Z,13.34
2022-12-31T10:02:01.364Z,13.57
2022-12-31T10:05:05.802Z,12.89
2022-12-31T10:08:06.821Z,13.69
2022-12-31T10:10:40.954Z,13.40
2022-12-31T10:13:33.722Z,13.52
2022-12-31T10:16:20.610Z,14.40
2022-12-31T10:19:32.168Z,14.57
2022-12-31T10:22:19.303Z,14.63
2022-12-31T10:24:49.606Z,12.87
2022-12-31T10:27:53.815Z,14.07
2022-12-31T10:30:24.567Z,14.05
2022-12-31T10:33:33.310Z,12.95
2022-12-31T10:36:21.699Z,12.69
2022-12-31T10:39:28.052Z,13.14
2022-12-31T10:41:56.370Z,13.43
2022-12-31T10:44:36.890Z,13.19
2022-12-31T10:47:54.559Z,14.13
2022-12-31T10:50:35.601Z,14.33
2022-12-31T10:53:54.773Z,14.18
2022-12-31T10:57:00.095Z,14.71
2022-12-31T11:00:04.065Z,14.51
2022-12-31T11:02:58.591Z,14.77
2022-12-31T11:06:00.673Z,14.97
2022-12-31T11:11:28.880Z,13.98
2022-12-31T11:14:34.676Z,14.95
2022-12-31T11:17:46.919Z,14.85
2022-12-31T11:20:52.160Z,13.73
2022-12-31T11:23:59.862Z,13.86
2022-12-31T11:26:47.017Z,13.84
2022-12-31T11:29:47.997Z,14.01
2022-12-31T11:32:25.126Z,13.81
2022-12-31T11:35:07.974Z,14.02
2022-12-31T11:37:48.790Z,13.93
2022-12-31T11:40:39.457Z,14.57
2022-12-31T11:43:57.130Z,15.22
2022-12-31T11:46:39.403Z,14.79
2022-12-31T11:49:30.381Z,14.86
2022-12-31T11:52:50.904Z,14.39
2022-12-31T11:55:39.213Z,15.05
2022-12-31T11:58:12.754Z,14.40
2022-12-31T12:00:40.172Z,13.66
2022-12-31T12:03:07.045Z,14.08
2022-12-31T12:05:34.199Z,13.72
2022-12-31T12:08:01.640Z,14.22
2022-12-31T12:11:02.935Z,14.42
2022-12-31T12:13:30.102Z,14.34
2022-12-31T12:16:06.928Z,13.84
2022-12-31T12:18:45.038Z,14.29
2022-12-31T12:21:14.002Z,14.76
2022-12-31T12:24:03.900Z,14.90
2022-12-31T12:26:41.243Z,14.74
2022-12-31T12:29:30.546Z,15.00
2022-12-31T12:32:05.493Z,14.16
2022-12-31T12:34:37.703Z,14.65
2022-12-31T12:37:33.416Z,14.47
2022-12-31T12:40:17.751Z,14.91
2022-12-31T12:42:52.395Z,15.39
2022-12-31T12:45:24.420Z,15.60
2022-12-31T12:47:58.853Z,14.71
2022-12-31T12:50:32.394Z,14.08
2022-12-31T12:53:17.170Z,14.47
2022-12-31T12:56:25.445Z,14.66
2022-12-31T12:59:06.317Z,14.16
2022-12-31T13:01:47.516Z,14.39
2022-12-31T13:07:42.982Z,13.92
2022-12-31T13:10:37.078Z,13.91
2022-12-31T13:13:34.201Z,14.18
2022-12-31T13:16:39.577Z,14.03
2022-12-31T13:19:30.452Z,14.22
2022-12-31T13:22:08.461Z,14.25
2022-12-31T13:24:43.178Z,14.24
2022-12-31T13:27:29.481Z,14.78
2022-12-31T13:30:00.334Z,14.11
2022-12-31T13:32:39.071Z,14.69
2022-12-31T13:35:21.333Z,15.09
2022-12-31T13:37:48.151Z,14.69
2022-12-31T13:40:21.728Z,14.79
2022-12-31T13:43:00.681Z,15.00
2022-12-31T13:45:32.904Z,14.95
2022-12-31T13:48:08.262Z,14.41
2022-12-31T13:50:44.884Z,14.96
2022-12-31T13:53:45.175Z,15.54
2022-12-31T13:56:34.063Z,15.00
2022-12-31T13:59:22.596Z,14.72
2022-12-31T14:02:34.240Z,15.19
2022-12-31T14:05:06.545Z,14.83
2022-12-31T14:07:40.365Z,15.43
2022-12-31T14:10:15.703Z,14.06
2022-12-31T14:12:52.644Z,13.97
2022-12-31T14:15:42.492Z,14.04
2022-12-31T14:18:33.924Z,14.19
2022-12-31T14:21:28.327Z,12.98
2022-12-31T14:24:18.266Z,13.68
2022-12-31T14:26:48.287Z,13.23
2022-12-31T14:29:43.273Z,13.39
2022-12-31T14:32:29.759Z,13.44
2022-12-31T14:35:07.548Z,13.78
2022-12-31T14:38:14.182Z,13.77
2022-12-31T14:41:11.715Z,13.76
2022-12-31T14:44:18.928Z,13.64
2022-12-31T14:47:24.604Z,13.83
2022-12-31T14:50:09.379Z,13.57
2022-12-31T14:53:03.784Z,13.69
2022-12-31T14:55:32.168Z,13.69
2022-12-31T14:58:36.931Z,13.87
2022-12-31T15:01:22.181Z,13.69
2022-12-31T15:04:13.497Z,13.88
2022-12-31T15:07:33.588Z,13.52
2022-12-31T15:10:26.501Z,13.64
2022-12-31T15:13:31.521Z,13.38
2022-12-31T15:16:19.197Z,13.55
2022-12-31T15:19:26.712Z,13.60
2022-12-31T15:22:45.289Z,13.55
2022-12-31T15:25:28.976Z,13.23
2022-12-31T15:27:57.779Z,13.07
2022-12-31T15:30:39.991Z,13.28
2022-12-31T15:33:16.749Z,13.17
2022-12-31T15:35:51.162Z,13.05
2022-12-31T15:38:29.112Z,13.09
2022-12-31T15:41:12.263Z,13.30
2022-12-31T15:44:02.005Z,13.63
2022-12-31T15:46:38.469Z,13.67
2022-12-31T15:49:21.137Z,13.19
2022-12-31T15:52:06.746Z,13.14
2022-12-31T15:54:37.808Z,12.79
2022-12-31T15:57:31.302Z,12.81
2022-12-31T15:59:59.141Z,12.31
2022-12-31T16:02:31.436Z,12.31
2022-12-31T16:04:58.700Z,12.56
2022-12-31T16:07:26.365Z,12.38
2022-12-31T16:09:54.683Z,11.99
2022-12-31T16:12:32.510Z,12.26
2022-12-31T16:15:01.567Z,11.93
2022-12-31T16:17:33.185Z,12.01
2022-12-31T16:20:20.381Z,11.55
2022-12-31T16:22:54.272Z,11.74
2022-12-31T16:25:31.507Z,11.82
2022-12-31T16:28:04.272Z,11.66
2022-12-31T16:30:34.075Z,11.74
2022-12-31T16:33:03.805Z,11.52
2022-12-31T16:35:37.029Z,11.75
2022-12-31T16:38:19.610Z,11.73
2022-12-31T16:41:20.493Z,11.76
2022-12-31T16:43:48.704Z,11.52
2022-12-31T16:46:27.591Z,11.51
2022-12-31T16:48:57.216Z,11.78
2022-12-31T16:51:43.840Z,11.93
2022-12-31T16:54:21.524Z,11.70
2022-12-31T16:56:49.125Z,11.79
2022-12-31T16:59:25.836Z,11.60
2022-12-31T17:01:55.328Z,12.07
2022-12-31T17:04:22.837Z,11.54
2022-12-31T17:06:49.600Z,11.53
2022-12-31T17:09:21.391Z,11.42
2022-12-31T17:11:58.013Z,11.62
2022-12-31T17:14:26.653Z,11.19
2022-12-31T17:17:02.704Z,10.90
2022-12-31T17:19:50.144Z,10.64
2022-12-31T17:22:32.755Z,11.11
2022-12-31T17:25:25.895Z,11.70
2022-12-31T17:27:59.874Z,10.99
2022-12-31T17:30:49.912Z,10.94
2022-12-31T17:33:27.429Z,10.96
2022-12-31T17:36:21.085Z,10.59
2022-12-31T17:38:53.218Z,10.23
2022-12-31T17:41:29.632Z,10.06
2022-12-31T17:44:01.757Z,10.04
2022-12-31T17:46:28.806Z,10.21
2022-12-31T17:49:01.631Z,10.07
2022-12-31T17:51:28.698Z,10.31
2022-12-31T17:53:55.734Z,10.18
2022-12-31T17:56:22.785Z,10.23
2022-12-31T17:58:50.931Z,10.30
2022-12-31T18:01:21.895Z,10.28
2022-12-31T18:03:51.618Z,10.05
2022-12-31T18:06:18.430Z,10.12
2022-12-31T18:08:45.440Z,10.09
2022-12-31T18:11:20.400Z,9.89
2022-12-31T18:13:53.197Z,9.83
2022-12-31T18:16:20.351Z,9.92
2022-12-31T18:18:47.477Z,10.01
2022-12-31T18:21:22.916Z,10.11
2022-12-31T18:26:22.822Z,9.78
2022-12-31T18:28:50.616Z,9.67
2022-12-31T18:31:20.311Z,9.43
2022-12-31T18:33:47.606Z,9.68
2022-12-31T18:36:20.147Z,9.78
2022-12-31T18:38:47.325Z,9.48
2022-12-31T18:41:23.433Z,9.45
2022-12-31T18:43:53.130Z,9.48
2022-12-31T18:46:21.518Z,9.87
2022-12-31T18:48:49.343Z,9.75
2022-12-31T18:51:31.070Z,9.83
2022-12-31T18:54:06.728Z,10.01
2022-12-31T18:56:33.840Z,9.99
2022-12-31T18:59:00.906Z,10.33
2022-12-31T19:01:29.907Z,10.51
2022-12-31T19:03:58.753Z,10.25
2022-12-31T19:06:25.828Z,10.29
2022-12-31T19:08:52.622Z,9.88
2022-12-31T19:11:19.799Z,9.88
2022-12-31T19:13:51.765Z,10.14
2022-12-31T19:16:18.837Z,10.14
2022-12-31T19:18:45.885Z,10.08
2022-12-31T19:21:15.933Z,9.97
2022-12-31T19:23:45.580Z,9.62
2022-12-31T19:26:19.597Z,9.79
2022-12-31T19:28:46.717Z,9.95
2022-12-31T19:31:13.542Z,9.72
2022-12-31T19:33:45.722Z,10.04
2022-12-31T19:36:16.205Z,9.74
2022-12-31T19:38:46.077Z,9.85
2022-12-31T19:41:17.561Z,9.84
2022-12-31T19:43:45.265Z,9.75
2022-12-31T19:46:16.580Z,9.77
2022-12-31T19:48:43.849Z,9.75
2022-12-31T19:51:11.949Z,9.93
2022-12-31T19:53:44.933Z,10.03
2022-12-31T19:56:16.254Z,10.24
2022-12-31T19:58:43.662Z,10.17
2022-12-31T20:01:21.713Z,10.38
2022-12-31T20:03:48.683Z,10.31
2022-12-31T20:06:16.566Z,10.38
2022-12-31T20:08:45.480Z,10.45
2022-12-31T20:11:19.910Z,10.56
2022-12-31T20:13:47.317Z,10.81
2022-12-31T20:16:16.063Z,10.65
2022-12-31T20:18:43.541Z,11.28
2022-12-31T20:21:14.334Z,11.30
2022-12-31T20:23:41.865Z,11.13
2022-12-31T20:26:09.137Z,11.08
2022-12-31T20:28:37.060Z,11.33
2022-12-31T20:31:26.625Z,11.37
2022-12-31T20:33:56.069Z,10.77
2022-12-31T20:36:23.023Z,10.60
2022-12-31T20:38:50.492Z,10.49
2022-12-31T20:41:18.973Z,10.50
2022-12-31T20:43:45.761Z,10.20
2022-12-31T20:46:19.970Z,10.45
2022-12-31T20:48:47.197Z,10.57
2022-12-31T20:51:14.795Z,10.63
2022-12-31T20:53:48.492Z,10.58
2022-12-31T20:56:17.474Z,9.96
2022-12-31T20:58:47.171Z,9.62
2022-12-31T21:01:14.443Z,9.40
2022-12-31T21:06:33.104Z,9.90
2022-12-31T21:09:00.389Z,10.10
2022-12-31T21:11:27.425Z,10.06
2022-12-31T21:13:54.821Z,9.94
2022-12-31T21:16:22.673Z,10.29
2022-12-31T21:18:49.979Z,10.44
2022-12-31T21:21:19.574Z,10.93
2022-12-31T21:23:47.677Z,10.60
2022-12-31T21:26:14.952Z,10.95
2022-12-31T21:28:41.863Z,10.98
2022-12-31T21:31:10.642Z,10.85
2022-12-31T21:33:37.788Z,10.82
2022-12-31T21:36:05.211Z,10.89
2022-12-31T21:38:58.546Z,10.92
2022-12-31T21:41:25.604Z,10.75
2022-12-31T21:43:57.433Z,10.89
2022-12-31T21:46:25.920Z,11.01
2022-12-31T21:49:12.505Z,11.17
2022-12-31T21:51:39.545Z,10.77
2022-12-31T21:54:08.670Z,10.73
2022-12-31T21:56:38.246Z,10.96
2022-12-31T21:59:05.343Z,10.92
2022-12-31T22:01:32.445Z,10.94
2022-12-31T22:03:59.507Z,10.96
2022-12-31T22:06:26.539Z,11.10
2022-12-31T22:08:54.696Z,10.83
2022-12-31T22:11:22.534Z,10.97
2022-12-31T22:13:49.944Z,10.98
2022-12-31T22:16:17.269Z,10.61
2022-12-31T22:18:44.413Z,10.46
2022-12-31T22:21:18.732Z,10.41
2022-12-31T22:23:48.484Z,10.33
2022-12-31T22:26:17.934Z,10.41
2022-12-31T22:28:45.641Z,10.46
2022-12-31T22:31:17.210Z,10.36
2022-12-31T22:33:46.014Z,10.41
2022-12-31T22:36:24.242Z,10.46
2022-12-31T22:38:54.187Z,10.52
2022-12-31T22:41:21.667Z,10.58
2022-12-31T22:43:49.967Z,10.51
2022-12-31T22:46:31.755Z,10.57
2022-12-31T22:48:59.225Z,10.79
2022-12-31T22:51:30.517Z,10.81
2022-12-31T22:54:18.766Z,10.92
2022-12-31T22:56:50.964Z,10.67
2022-12-31T22:59:18.003Z,10.86
2022-12-31T23:01:44.830Z,10.65
2022-12-31T23:04:12.332Z,10.78
2022-12-31T23:06:39.503Z,10.80
2022-12-31T23:09:06.314Z,10.78
2022-12-31T23:11:33.935Z,11.08
2022-12-31T23:14:07.373Z,10.86
2022-12-31T23:16:36.781Z,10.95
2022-12-31T23:19:05.704Z,10.88
2022-12-31T23:21:34.843Z,10.64
2022-12-31T23:24:13.055Z,10.57
2022-12-31T23:26:45.206Z,10.66
2022-12-31T23:29:12.626Z,10.78
2022-12-31T23:31:39.400Z,10.62
2022-12-31T23:34:07.702Z,10.62
2022-12-31T23:36:34.629Z,10.66
2022-12-31T23:39:07.362Z,10.72
2022-12-31T23:41:34.443Z,10.80
2022-12-31T23:44:01.429Z,10.66
2022-12-31T23:46:28.300Z,10.68
2022-12-31T23:48:55.311Z,10.71
2022-12-31T23:51:22.054Z,10.87
2022-12-31T23:53:49.088Z,10.62
2022-12-31T23:56:23.068Z,10.59
2022-12-31T23:58:56.691Z,10.51
